Time;durP1;ratioP1;P1;durP2;ratioP2;P2;SDS_P1;SDS_P2;PMS_P1;PMS_P2;Temp;Humidity;BMP_temperature;BMP_pressure;BME280_temperature;BME280_humidity;BME280_pressure;Samples;Min_cycle;Max_cycle;Signal;HPM_P1;HPM_P2
2023/12/31 00:00:08;;;;;;;4.65;1.02;;;;;;;;;;5070113;28;20036;-80
2023/12/31 00:02:36;;;;;;;1.52;0.98;;;;;;;;;;5068638;28;20549;-80
2023/12/31 00:05:05;;;;;;;1.65;1.45;;;;;;;;;;5051888;28;20491;-81
2023/12/31 00:07:30;;;;;;;2.67;1.60;;;;;;;;;;5071370;28;20024;-81
2023/12/31 00:09:56;;;;;;;2.40;1.77;;;;;;;;;;5071878;28;20089;-81
2023/12/31 00:12:21;;;;;;;3.83;2.13;;;;;;;;;;5052531;28;20478;-80
2023/12/31 00:14:47;;;;;;;3.22;1.48;;;;;;;;;;5067977;28;20036;-82
2023/12/31 00:17:13;;;;;;;3.15;1.70;;;;;;;;;;5069866;28;20068;-82
2023/12/31 00:19:38;;;;;;;2.78;1.30;;;;;;;;;;5067657;28;20419;-81
2023/12/31 00:22:04;;;;;;;2.47;1.67;;;;;;;;;;5068508;28;20490;-82
2023/12/31 00:24:29;;;;;;;3.63;2.08;;;;;;;;;;5068353;28;20123;-81
2023/12/31 00:26:55;;;;;;;2.42;1.92;;;;;;;;;;5069305;28;20032;-81
2023/12/31 00:29:23;;;;;;;4.97;1.95;;;;;;;;;;5068235;28;20126;-81
2023/12/31 00:31:51;;;;;;;3.97;1.48;;;;;;;;;;5071146;28;20059;-81
2023/12/31 00:34:20;;;;;;;4.13;1.88;;;;;;;;;;5071502;28;20115;-81
2023/12/31 00:36:51;;;;;;;1.70;1.52;;;;;;;;;;5071743;28;20040;-81
2023/12/31 00:39:17;;;;;;;2.80;1.30;;;;;;;;;;5070632;28;20506;-82
2023/12/31 00:41:48;;;;;;;3.15;2.20;;;;;;;;;;5057535;28;20036;-80
2023/12/31 00:44:16;;;;;;;1.85;1.58;;;;;;;;;;5056130;28;20067;-82
2023/12/31 00:46:42;;;;;;;4.20;1.90;;;;;;;;;;5075961;28;20032;-80
2023/12/31 00:49:09;;;;;;;1.58;1.48;;;;;;;;;;5055546;28;20484;-80
2023/12/31 00:51:35;;;;;;;6.68;2.42;;;;;;;;;;5073422;28;20103;-81
2023/12/31 00:54:00;;;;;;;1.55;1.27;;;;;;;;;;5058517;28;20055;-81
2023/12/31 00:56:28;;;;;;;2.67;1.48;;;;;;;;;;5057478;28;20127;-81
2023/12/31 00:58:54;;;;;;;2.20;1.38;;;;;;;;;;5073728;28;20545;-81
2023/12/31 01:01:19;;;;;;;3.05;1.23;;;;;;;;;;5076468;28;20029;-82
2023/12/31 01:03:45;;;;;;;1.70;1.60;;;;;;;;;;5076330;28;20116;-81
2023/12/31 01:06:10;;;;;;;3.38;1.83;;;;;;;;;;5075035;28;20372;-83
2023/12/31 01:08:36;;;;;;;2.47;2.13;;;;;;;;;;5055060;28;20074;-80
2023/12/31 01:11:02;;;;;;;1.92;1.65;;;;;;;;;;5075951;28;20028;-80
2023/12/31 01:13:30;;;;;;;6.32;2.88;;;;;;;;;;5056694;28;20024;-82
2023/12/31 01:15:55;;;;;;;1.27;1.15;;;;;;;;;;5074293;28;20177;-81
2023/12/31 01:18:26;;;;;;;2.38;1.85;;;;;;;;;;5056651;28;20103;-81
2023/12/31 01:20:51;;;;;;;2.22;1.95;;;;;;;;;;5056066;28;20035;-81
2023/12/31 01:23:19;;;;;;;5.43;2.20;;;;;;;;;;5054033;28;20029;-81
2023/12/31 01:25:45;;;;;;;1.40;1.30;;;;;;;;;;5073279;28;20033;-81
2023/12/31 01:28:13;;;;;;;3.10;2.22;;;;;;;;;;5071587;28;20919;-80
2023/12/31 01:30:41;;;;;;;6.65;3.35;;;;;;;;;;5072180;28;20372;-80
2023/12/31 01:33:17;;;;;;;1.92;1.45;;;;;;;;;;5054361;28;20392;-81
2023/12/31 01:35:45;;;;;;;6.28;2.42;;;;;;;;;;5070537;28;20067;-81
2023/12/31 01:38:10;;;;;;;3.33;2.03;;;;;;;;;;5072491;28;20031;-81
2023/12/31 01:40:36;;;;;;;1.70;1.58;;;;;;;;;;5071842;28;20032;-82
2023/12/31 01:43:04;;;;;;;2.67;1.33;;;;;;;;;;5073829;28;20039;-81
2023/12/31 01:45:29;;;;;;;1.88;1.17;;;;;;;;;;5072276;28;20055;-82
2023/12/31 01:48:08;;;;;;;2.08;1.88;;;;;;;;;;5073415;28;20052;-82
2023/12/31 01:50:33;;;;;;;1.52;1.17;;;;;;;;;;5071677;28;20036;-80
2023/12/31 01:53:08;;;;;;;1.63;1.27;;;;;;;;;;5074533;28;20031;-81
2023/12/31 01:55:36;;;;;;;7.05;3.28;;;;;;;;;;5072101;28;20035;-83
2023/12/31 01:58:05;;;;;;;6.33;3.30;;;;;;;;;;5073536;28;20059;-82
2023/12/31 02:00:34;;;;;;;3.13;2.20;;;;;;;;;;5073418;28;20056;-83
2023/12/31 02:03:00;;;;;;;1.13;1.13;;;;;;;;;;5055441;28;20056;-81
2023/12/31 02:05:26;;;;;;;3.13;2.67;;;;;;;;;;5053887;28;20082;-82
2023/12/31 02:07:51;;;;;;;1.55;1.42;;;;;;;;;;5070858;28;20029;-82
2023/12/31 02:10:26;;;;;;;3.60;2.20;;;;;;;;;;5071941;28;20085;-82
2023/12/31 02:12:51;;;;;;;1.20;1.05;;;;;;;;;;5072089;28;20392;-81
2023/12/31 02:15:33;;;;;;;3.75;2.05;;;;;;;;;;5070541;28;20035;-82
2023/12/31 02:18:00;;;;;;;1.73;1.05;;;;;;;;;;5069744;28;20024;-81
2023/12/31 02:20:29;;;;;;;2.35;1.70;;;;;;;;;;5071625;28;20029;-82
2023/12/31 02:22:57;;;;;;;0.70;0.68;;;;;;;;;;5073385;28;20479;-82
2023/12/31 02:25:24;;;;;;;1.67;0.95;;;;;;;;;;5055288;28;20066;-81
2023/12/31 02:27:54;;;;;;;2.22;1.40;;;;;;;;;;5069957;28;20020;-81
2023/12/31 02:30:22;;;;;;;2.85;1.88;;;;;;;;;;5053198;28;20028;-83
2023/12/31 02:32:47;;;;;;;3.83;2.22;;;;;;;;;;5061870;28;20060;-81
2023/12/31 02:35:13;;;;;;;3.55;2.17;;;;;;;;;;5054501;28;20456;-81
2023/12/31 02:37:41;;;;;;;2.92;1.25;;;;;;;;;;5071929;28;20055;-82
2023/12/31 02:40:07;;;;;;;2.75;1.77;;;;;;;;;;5053504;28;20024;-81
2023/12/31 02:42:32;;;;;;;2.55;1.90;;;;;;;;;;5052264;28;20079;-81
2023/12/31 02:44:58;;;;;;;1.55;1.20;;;;;;;;;;5070677;28;20024;-81
2023/12/31 02:47:23;;;;;;;2.70;1.20;;;;;;;;;;5070300;28;20115;-81
2023/12/31 02:49:49;;;;;;;2.45;1.33;;;;;;;;;;5071229;28;20047;-81
2023/12/31 02:52:15;;;;;;;2.70;1.75;;;;;;;;;;5052852;28;20050;-82
2023/12/31 02:54:41;;;;;;;3.78;2.00;;;;;;;;;;5070861;28;20512;-81
2023/12/31 02:57:07;;;;;;;2.00;1.48;;;;;;;;;;5068347;28;20119;-82
2023/12/31 02:59:42;;;;;;;2.38;1.20;;;;;;;;;;5067201;28;20036;-82
2023/12/31 03:02:07;;;;;;;1.88;1.42;;;;;;;;;;5069366;28;20558;-80
2023/12/31 03:04:32;;;;;;;1.10;1.00;;;;;;;;;;5069285;28;20036;-81
2023/12/31 03:06:58;;;;;;;2.15;1.35;;;;;;;;;;5069706;28;20055;-82
2023/12/31 03:09:23;;;;;;;1.88;1.48;;;;;;;;;;5070000;28;20086;-80
2023/12/31 03:11:50;;;;;;;0.30;0.30;;;;;;;;;;5068489;28;20028;-83
2023/12/31 03:14:16;;;;;;;0.88;0.82;;;;;;;;;;5069023;28;20025;-80
2023/12/31 03:16:50;;;;;;;0.60;0.60;;;;;;;;;;5068975;28;20067;-81
2023/12/31 03:19:18;;;;;;;1.10;0.98;;;;;;;;;;5051160;28;20107;-81
2023/12/31 03:21:43;;;;;;;0.70;0.70;;;;;;;;;;5069124;28;20041;-79
2023/12/31 03:24:10;;;;;;;2.90;0.93;;;;;;;;;;5069158;28;20039;-80
2023/12/31 03:26:38;;;;;;;0.77;0.55;;;;;;;;;;5067325;28;20368;-82
2023/12/31 03:29:03;;;;;;;0.45;0.45;;;;;;;;;;5066273;28;20077;-81
2023/12/31 03:31:32;;;;;;;1.90;0.75;;;;;;;;;;5068060;28;20024;-83
2023/12/31 03:33:57;;;;;;;0.47;0.45;;;;;;;;;;5069818;28;20058;-80
2023/12/31 03:36:24;;;;;;;0.52;0.38;;;;;;;;;;5069821;28;20020;-80
2023/12/31 03:38:49;;;;;;;1.23;0.93;;;;;;;;;;5070389;28;20032;-81
2023/12/31 03:41:15;;;;;;;0.30;0.30;;;;;;;;;;5069117;28;20025;-82
2023/12/31 03:43:41;;;;;;;0.60;0.60;;;;;;;;;;5068802;28;20802;-82
2023/12/31 03:46:06;;;;;;;1.35;0.68;;;;;;;;;;5068614;28;20060;-81
2023/12/31 03:48:32;;;;;;;1.63;0.63;;;;;;;;;;5067539;28;20063;-81
2023/12/31 03:50:58;;;;;;;0.80;0.80;;;;;;;;;;5068528;28;20701;-82
2023/12/31 03:53:23;;;;;;;0.30;0.30;;;;;;;;;;5068605;28;20682;-80
2023/12/31 03:55:49;;;;;;;0.30;0.30;;;;;;;;;;5066640;28;20024;-81
2023/12/31 03:58:16;;;;;;;0.82;0.63;;;;;;;;;;5068765;28;20020;-83
2023/12/31 04:00:44;;;;;;;0.50;0.50;;;;;;;;;;5049184;28;20488;-81
2023/12/31 04:03:10;;;;;;;0.30;0.30;;;;;;;;;;5050969;28;20032;-82
2023/12/31 04:05:35;;;;;;;0.77;0.77;;;;;;;;;;5068298;28;20024;-81
2023/12/31 04:08:00;;;;;;;0.20;0.20;;;;;;;;;;5068690;28;20047;-80
2023/12/31 04:10:26;;;;;;;0.80;0.68;;;;;;;;;;5068077;28;20530;-82
2023/12/31 04:12:54;;;;;;;0.45;0.45;;;;;;;;;;5069289;28;20032;-81
2023/12/31 04:15:19;;;;;;;0.73;0.70;;;;;;;;;;5067267;28;20055;-81
2023/12/31 04:17:48;;;;;;;1.58;0.68;;;;;;;;;;5066896;28;20117;-81
2023/12/31 04:20:14;;;;;;;0.20;0.20;;;;;;;;;;5049235;28;20064;-80
2023/12/31 04:22:39;;;;;;;0.52;0.38;;;;;;;;;;5068828;28;20060;-81
2023/12/31 04:25:10;;;;;;;0.52;0.52;;;;;;;;;;5050784;28;20074;-81
2023/12/31 04:27:38;;;;;;;0.40;0.40;;;;;;;;;;5068325;28;20757;-81
2023/12/31 04:30:06;;;;;;;0.63;0.50;;;;;;;;;;5070046;28;20519;-82
2023/12/31 04:32:32;;;;;;;0.43;0.43;;;;;;;;;;5052169;28;20036;-80
2023/12/31 04:35:00;;;;;;;1.10;0.32;;;;;;;;;;5068019;28;20032;-81
2023/12/31 04:37:26;;;;;;;0.30;0.30;;;;;;;;;;5065365;28;20042;-81
2023/12/31 04:39:55;;;;;;;0.57;0.50;;;;;;;;;;5050224;28;20032;-81
2023/12/31 04:42:23;;;;;;;5.00;2.17;;;;;;;;;;5067953;28;20024;-80
2023/12/31 04:44:48;;;;;;;0.73;0.55;;;;;;;;;;5067882;28;20024;-80
2023/12/31 04:47:17;;;;;;;0.50;0.50;;;;;;;;;;5068204;28;20397;-80
2023/12/31 04:49:43;;;;;;;0.75;0.75;;;;;;;;;;5065866;28;20041;-81
2023/12/31 04:52:14;;;;;;;2.63;0.52;;;;;;;;;;5068180;28;20384;-80
2023/12/31 04:54:41;;;;;;;0.75;0.75;;;;;;;;;;5067408;28;20496;-80
2023/12/31 04:57:07;;;;;;;0.60;0.60;;;;;;;;;;5050990;28;20025;-83
2023/12/31 04:59:35;;;;;;;0.30;0.30;;;;;;;;;;5068416;28;20036;-82
2023/12/31 05:02:00;;;;;;;0.52;0.52;;;;;;;;;;5066713;28;20070;-81
2023/12/31 05:04:29;;;;;;;0.40;0.40;;;;;;;;;;5048354;28;20414;-81
2023/12/31 05:06:58;;;;;;;0.30;0.30;;;;;;;;;;5047130;28;20166;-81
2023/12/31 05:09:24;;;;;;;0.40;0.40;;;;;;;;;;5067945;28;20074;-83
2023/12/31 05:11:49;;;;;;;0.43;0.43;;;;;;;;;;5050339;28;20273;-79
2023/12/31 05:14:15;;;;;;;0.40;0.40;;;;;;;;;;5067915;28;20582;-81
2023/12/31 05:16:40;;;;;;;0.47;0.47;;;;;;;;;;5049429;28;20040;-80
2023/12/31 05:19:06;;;;;;;0.40;0.40;;;;;;;;;;5065225;28;20032;-81
2023/12/31 05:21:31;;;;;;;0.30;0.30;;;;;;;;;;5067320;28;20046;-82
2023/12/31 05:23:57;;;;;;;2.28;0.85;;;;;;;;;;5067877;28;20085;-80
2023/12/31 05:26:22;;;;;;;3.92;0.60;;;;;;;;;;5051518;28;20029;-81
2023/12/31 05:28:48;;;;;;;1.05;0.77;;;;;;;;;;5071278;28;20051;-80
2023/12/31 05:31:13;;;;;;;1.70;0.90;;;;;;;;;;5071959;28;20029;-79
2023/12/31 05:33:41;;;;;;;1.13;1.08;;;;;;;;;;5073277;28;20074;-82
2023/12/31 05:36:06;;;;;;;2.35;0.65;;;;;;;;;;5071960;28;20548;-81
2023/12/31 05:38:32;;;;;;;0.30;0.30;;;;;;;;;;5071865;28;20099;-81
2023/12/31 05:40:57;;;;;;;1.35;0.90;;;;;;;;;;5052639;28;20052;-82
2023/12/31 05:43:23;;;;;;;0.30;0.30;;;;;;;;;;5070739;28;20705;-81
2023/12/31 05:45:48;;;;;;;0.85;0.73;;;;;;;;;;5052037;28;20111;-80
2023/12/31 05:48:14;;;;;;;0.63;0.63;;;;;;;;;;5070817;28;20090;-80
2023/12/31 05:50:40;;;;;;;0.50;0.50;;;;;;;;;;5070372;28;20024;-79
2023/12/31 05:53:08;;;;;;;0.60;0.60;;;;;;;;;;5070599;28;20031;-81
2023/12/31 05:55:33;;;;;;;0.50;0.50;;;;;;;;;;5069840;28;20086;-81
2023/12/31 05:58:05;;;;;;;0.30;0.30;;;;;;;;;;5068864;28;20032;-81
2023/12/31 06:00:30;;;;;;;0.50;0.50;;;;;;;;;;5069984;28;20024;-80
2023/12/31 06:02:56;;;;;;;0.52;0.40;;;;;;;;;;5068979;28;20526;-80
2023/12/31 06:05:21;;;;;;;1.42;0.50;;;;;;;;;;5070316;28;20056;-83
2023/12/31 06:07:47;;;;;;;0.30;0.30;;;;;;;;;;5069749;28;20052;-79
2023/12/31 06:10:15;;;;;;;0.82;0.82;;;;;;;;;;5051294;28;20123;-80
2023/12/31 06:12:40;;;;;;;0.80;0.68;;;;;;;;;;5068709;28;20078;-80
2023/12/31 06:15:07;;;;;;;0.30;0.30;;;;;;;;;;5049887;28;20028;-81
2023/12/31 06:17:36;;;;;;;0.52;0.40;;;;;;;;;;5050067;28;20601;-80
2023/12/31 06:20:04;;;;;;;0.52;0.52;;;;;;;;;;5070022;28;20032;-80
2023/12/31 06:22:30;;;;;;;0.38;0.38;;;;;;;;;;5051704;28;20079;-81
2023/12/31 06:24:55;;;;;;;2.67;0.40;;;;;;;;;;5068948;28;20052;-79
2023/12/31 06:27:20;;;;;;;0.90;0.85;;;;;;;;;;5068761;28;20024;-78
2023/12/31 06:29:46;;;;;;;0.32;0.32;;;;;;;;;;5068764;28;20027;-79
2023/12/31 06:32:11;;;;;;;0.20;0.20;;;;;;;;;;5067256;28;20428;-80
2023/12/31 06:34:37;;;;;;;0.30;0.30;;;;;;;;;;5070317;28;20036;-78
2023/12/31 06:37:02;;;;;;;0.20;0.20;;;;;;;;;;5067981;28;20021;-79
2023/12/31 06:39:29;;;;;;;1.05;1.00;;;;;;;;;;5068808;28;20560;-79
2023/12/31 06:41:55;;;;;;;0.65;0.35;;;;;;;;;;5068708;28;20111;-80
2023/12/31 06:44:21;;;;;;;1.23;0.77;;;;;;;;;;5068452;28;20024;-82
2023/12/31 06:46:46;;;;;;;1.88;0.98;;;;;;;;;;5069277;28;20029;-81
2023/12/31 06:49:12;;;;;;;1.00;0.90;;;;;;;;;;5051266;28;20074;-82
2023/12/31 06:51:37;;;;;;;5.55;0.77;;;;;;;;;;5050414;28;20028;-81
2023/12/31 06:54:02;;;;;;;1.77;1.33;;;;;;;;;;5068636;28;20066;-82
2023/12/31 06:56:29;;;;;;;0.40;0.30;;;;;;;;;;5069636;28;20024;-81
2023/12/31 06:58:54;;;;;;;1.33;0.73;;;;;;;;;;5068523;28;20464;-79
2023/12/31 07:01:19;;;;;;;0.63;0.60;;;;;;;;;;5068900;28;20037;-80
2023/12/31 07:03:45;;;;;;;2.13;1.23;;;;;;;;;;5068137;28;20032;-80
2023/12/31 07:06:11;;;;;;;4.05;2.08;;;;;;;;;;5068769;28;21378;-80
2023/12/31 07:08:39;;;;;;;0.90;0.90;;;;;;;;;;5049157;28;20353;-81
2023/12/31 07:11:05;;;;;;;2.30;0.98;;;;;;;;;;5065089;28;20032;-79
2023/12/31 07:13:31;;;;;;;0.50;0.50;;;;;;;;;;5068608;28;20024;-79
2023/12/31 07:16:02;;;;;;;1.17;1.10;;;;;;;;;;5067285;28;20699;-79
2023/12/31 07:18:27;;;;;;;2.40;1.77;;;;;;;;;;5050304;28;20074;-78
2023/12/31 07:20:56;;;;;;;7.43;2.80;;;;;;;;;;5065937;28;20098;-78
2023/12/31 07:23:22;;;;;;;6.00;2.08;;;;;;;;;;5067489;28;20032;-80
2023/12/31 07:25:47;;;;;;;2.80;1.77;;;;;;;;;;5068887;28;20368;-80
2023/12/31 07:28:13;;;;;;;2.15;1.38;;;;;;;;;;5069067;28;20025;-79
2023/12/31 07:30:39;;;;;;;1.75;1.42;;;;;;;;;;5068857;28;20067;-79
2023/12/31 07:33:05;;;;;;;3.53;1.73;;;;;;;;;;5068772;28;20479;-78
2023/12/31 07:35:34;;;;;;;4.95;2.60;;;;;;;;;;5067398;28;20028;-79
2023/12/31 07:38:00;;;;;;;3.10;2.77;;;;;;;;;;5068649;28;20029;-79
2023/12/31 07:40:26;;;;;;;1.65;1.55;;;;;;;;;;5050034;28;20479;-82
2023/12/31 07:42:51;;;;;;;1.90;1.40;;;;;;;;;;5065848;28;20032;-82
2023/12/31 07:45:17;;;;;;;2.55;1.80;;;;;;;;;;5048816;28;20032;-79
2023/12/31 07:47:42;;;;;;;1.13;1.10;;;;;;;;;;5050868;28;20036;-81
2023/12/31 07:50:08;;;;;;;1.80;1.70;;;;;;;;;;5050396;28;20032;-82
2023/12/31 07:52:34;;;;;;;4.20;2.28;;;;;;;;;;5068921;28;20077;-81
2023/12/31 07:55:00;;;;;;;3.65;2.30;;;;;;;;;;5069518;28;20037;-81
2023/12/31 07:57:25;;;;;;;5.05;3.15;;;;;;;;;;5069311;28;20028;-81
2023/12/31 07:59:50;;;;;;;4.40;3.28;;;;;;;;;;5068855;28;20032;-81
2023/12/31 08:02:16;;;;;;;6.25;2.78;;;;;;;;;;5069103;28;20024;-82
2023/12/31 08:04:42;;;;;;;3.15;2.45;;;;;;;;;;5050219;28;20373;-81
2023/12/31 08:07:08;;;;;;;5.40;2.78;;;;;;;;;;5068778;28;20393;-81
2023/12/31 08:09:33;;;;;;;5.90;2.67;;;;;;;;;;5068905;28;20020;-81
2023/12/31 08:11:58;;;;;;;1.95;1.73;;;;;;;;;;5068457;28;20020;-82
2023/12/31 08:14:24;;;;;;;2.80;1.92;;;;;;;;;;5065591;28;20085;-81
2023/12/31 08:16:50;;;;;;;4.75;3.35;;;;;;;;;;5068672;28;20047;-81
2023/12/31 08:19:16;;;;;;;4.43;2.72;;;;;;;;;;5068689;28;20051;-79
2023/12/31 08:21:41;;;;;;;5.60;3.72;;;;;;;;;;5050604;28;20406;-80
2023/12/31 08:24:07;;;;;;;3.60;2.78;;;;;;;;;;5069257;28;20028;-82
2023/12/31 08:26:33;;;;;;;5.25;3.50;;;;;;;;;;5068569;28;20541;-79
2023/12/31 08:28:59;;;;;;;2.55;1.58;;;;;;;;;;5049760;28;20029;-80
2023/12/31 08:31:25;;;;;;;4.10;2.40;;;;;;;;;;5068972;28;20021;-81
2023/12/31 08:33:50;;;;;;;2.95;2.50;;;;;;;;;;5069170;28;20333;-81
2023/12/31 08:36:15;;;;;;;5.25;2.38;;;;;;;;;;5050844;28;20071;-82
2023/12/31 08:38:41;;;;;;;2.10;1.90;;;;;;;;;;5066500;28;20571;-82
2023/12/31 08:41:06;;;;;;;2.78;1.98;;;;;;;;;;5067783;28;20048;-81
2023/12/31 08:43:32;;;;;;;2.88;1.83;;;;;;;;;;5069407;28;20704;-81
2023/12/31 08:45:57;;;;;;;2.05;1.67;;;;;;;;;;5067874;28;20111;-80
2023/12/31 08:48:22;;;;;;;2.53;1.35;;;;;;;;;;5068952;28;20032;-81
2023/12/31 08:50:49;;;;;;;3.28;1.88;;;;;;;;;;5067535;28;20388;-80
2023/12/31 08:53:14;;;;;;;2.05;1.73;;;;;;;;;;5067631;28;20121;-81
2023/12/31 08:55:39;;;;;;;1.88;1.73;;;;;;;;;;5068610;28;20055;-80
2023/12/31 08:58:05;;;;;;;3.10;2.25;;;;;;;;;;5050317;28;20052;-78
2023/12/31 09:00:30;;;;;;;4.80;2.60;;;;;;;;;;5070447;28;20037;-80
2023/12/31 09:02:56;;;;;;;5.05;3.03;;;;;;;;;;5071709;28;20147;-79
2023/12/31 09:05:22;;;;;;;1.50;1.40;;;;;;;;;;5071446;28;20032;-79
2023/12/31 09:07:48;;;;;;;3.67;2.58;;;;;;;;;;5072129;28;20035;-78
2023/12/31 09:10:13;;;;;;;1.85;1.70;;;;;;;;;;5072094;28;20032;-78
2023/12/31 09:12:39;;;;;;;2.00;1.83;;;;;;;;;;5072114;28;20101;-79
2023/12/31 09:15:06;;;;;;;3.10;1.27;;;;;;;;;;5071617;28;20060;-79
2023/12/31 09:17:31;;;;;;;1.52;1.33;;;;;;;;;;5054572;28;20752;-79
2023/12/31 09:19:58;;;;;;;4.47;2.42;;;;;;;;;;5070806;28;20059;-78
2023/12/31 09:22:26;;;;;;;3.92;2.55;;;;;;;;;;5071467;28;20441;-82
2023/12/31 09:24:52;;;;;;;3.20;2.65;;;;;;;;;;5071832;28;20028;-81
2023/12/31 09:27:18;;;;;;;2.85;2.47;;;;;;;;;;5072247;28;20036;-79
2023/12/31 09:29:45;;;;;;;2.17;1.38;;;;;;;;;;5053926;28;20028;-81
2023/12/31 09:32:10;;;;;;;7.65;2.47;;;;;;;;;;5072879;28;20059;-80
2023/12/31 09:34:35;;;;;;;2.30;1.85;;;;;;;;;;5053401;28;20060;-81
2023/12/31 09:37:01;;;;;;;3.50;2.30;;;;;;;;;;5071402;28;20036;-82
2023/12/31 09:39:26;;;;;;;3.28;1.90;;;;;;;;;;5053319;28;21125;-81
2023/12/31 09:41:53;;;;;;;2.50;1.50;;;;;;;;;;5071467;28;20056;-82
2023/12/31 09:44:19;;;;;;;2.50;1.63;;;;;;;;;;5070722;28;20103;-81
2023/12/31 09:47:04;;;;;;;2.88;1.67;;;;;;;;;;5069280;28;20231;-81
2023/12/31 09:49:31;;;;;;;5.72;2.85;;;;;;;;;;5070698;28;20020;-81
2023/12/31 09:51:59;;;;;;;4.90;1.55;;;;;;;;;;5070562;28;20392;-82
2023/12/31 09:54:24;;;;;;;4.57;1.73;;;;;;;;;;5069793;28;20029;-81
2023/12/31 09:56:51;;;;;;;3.60;1.98;;;;;;;;;;5069547;28;20028;-81
2023/12/31 09:59:19;;;;;;;3.45;1.75;;;;;;;;;;5072247;28;20131;-80
2023/12/31 10:01:47;;;;;;;2.70;2.05;;;;;;;;;;5053504;28;20070;-82
2023/12/31 10:04:13;;;;;;;4.95;2.40;;;;;;;;;;5070526;28;20027;-80
2023/12/31 10:06:39;;;;;;;4.93;1.60;;;;;;;;;;5050675;28;20024;-83
2023/12/31 10:09:07;;;;;;;2.22;1.55;;;;;;;;;;5054100;28;20025;-80
2023/12/31 10:11:33;;;;;;;4.47;2.70;;;;;;;;;;5070654;28;20016;-83
2023/12/31 10:13:59;;;;;;;5.15;2.15;;;;;;;;;;5069815;28;20032;-82
2023/12/31 10:16:34;;;;;;;4.85;2.53;;;;;;;;;;5069774;28;20357;-79
2023/12/31 10:19:00;;;;;;;2.90;2.10;;;;;;;;;;5071517;28;20025;-83
2023/12/31 10:21:26;;;;;;;3.25;2.53;;;;;;;;;;5070262;28;20020;-82
2023/12/31 10:23:52;;;;;;;1.63;1.40;;;;;;;;;;5069744;28;20105;-80
2023/12/31 10:26:17;;;;;;;4.28;3.40;;;;;;;;;;5070127;28;20032;-81
2023/12/31 10:28:42;;;;;;;3.90;2.08;;;;;;;;;;5066219;28;20139;-82
2023/12/31 10:31:08;;;;;;;3.35;2.08;;;;;;;;;;5070108;28;20024;-84
2023/12/31 10:33:36;;;;;;;3.38;2.55;;;;;;;;;;5069685;28;20059;-81
2023/12/31 10:36:05;;;;;;;4.43;2.53;;;;;;;;;;5070358;28;20115;-84
2023/12/31 10:38:43;;;;;;;5.45;3.15;;;;;;;;;;5070780;28;20036;-82
2023/12/31 10:41:10;;;;;;;4.20;2.15;;;;;;;;;;5070631;28;20119;-82
2023/12/31 10:43:39;;;;;;;3.90;1.85;;;;;;;;;;5069809;28;20431;-82
2023/12/31 10:46:07;;;;;;;3.05;1.73;;;;;;;;;;5052010;28;20480;-82
2023/12/31 10:48:33;;;;;;;3.85;2.97;;;;;;;;;;5069066;28;20102;-83
2023/12/31 10:51:03;;;;;;;2.13;1.92;;;;;;;;;;5070378;28;20028;-82
2023/12/31 10:53:31;;;;;;;9.05;3.08;;;;;;;;;;5070091;28;20384;-83
2023/12/31 10:55:57;;;;;;;2.78;2.08;;;;;;;;;;5070548;28;20713;-82
2023/12/31 10:58:23;;;;;;;3.85;2.60;;;;;;;;;;5052130;28;20028;-82
2023/12/31 11:00:51;;;;;;;2.10;1.80;;;;;;;;;;5068222;28;20032;-83
2023/12/31 11:03:18;;;;;;;3.50;2.05;;;;;;;;;;5070064;28;20032;-83
2023/12/31 11:05:44;;;;;;;2.28;1.38;;;;;;;;;;5051705;28;20052;-83
2023/12/31 11:08:24;;;;;;;4.38;1.42;;;;;;;;;;5068724;28;20076;-86
2023/12/31 11:10:56;;;;;;;2.38;1.88;;;;;;;;;;5067528;28;20395;-82
2023/12/31 11:13:25;;;;;;;3.80;2.03;;;;;;;;;;5067915;28;20032;-81
2023/12/31 11:16:05;;;;;;;3.75;3.10;;;;;;;;;;5068137;28;20052;-82
2023/12/31 11:18:55;;;;;;;;;;;;;;;;;;5069030;28;20377;-80
2023/12/31 11:22:20;;;;;;;1.65;1.27;;;;;;;;;;5067563;28;19927;-82
2023/12/31 11:24:57;;;;;;;3.20;1.90;;;;;;;;;;4989046;28;20034;-83
2023/12/31 11:27:49;;;;;;;6.25;3.72;;;;;;;;;;5002875;28;20041;-81
2023/12/31 11:30:15;;;;;;;2.65;1.67;;;;;;;;;;4989155;28;20486;-83
2023/12/31 11:33:06;;;;;;;;;;;;;;;;;;;;;
2023/12/31 11:35:54;;;;;;;4.90;2.97;;;;;;;;;;5067450;28;20047;-83
2023/12/31 11:39:02;;;;;;;1.83;1.52;;;;;;;;;;5067764;28;20504;-83
2023/12/31 11:48:29;;;;;;;9.10;2.80;;;;;;;;;;5059738;28;20072;-82
2023/12/31 11:53:50;;;;;;;;;;;;;;;;;;5058390;28;20055;-79
2023/12/31 11:56:16;;;;;;;4.60;1.45;;;;;;;;;;5073168;28;20391;-81
2023/12/31 11:58:54;;;;;;;7.95;2.38;;;;;;;;;;5072290;28;20059;-82
2023/12/31 12:01:22;;;;;;;4.63;2.65;;;;;;;;;;5054869;28;20124;-82
2023/12/31 12:03:58;;;;;;;7.25;2.55;;;;;;;;;;5070456;28;20051;-81
2023/12/31 12:06:24;;;;;;;3.30;1.55;;;;;;;;;;5068831;28;20039;-83
2023/12/31 12:08:55;;;;;;;3.10;2.53;;;;;;;;;;5068427;28;20037;-81
2023/12/31 12:11:24;;;;;;;3.45;2.33;;;;;;;;;;5069738;28;20021;-83
2023/12/31 12:13:49;;;;;;;2.97;2.03;;;;;;;;;;5069889;28;20393;-81
2023/12/31 12:16:29;;;;;;;4.85;1.88;;;;;;;;;;5052771;28;20769;-81
2023/12/31 12:18:58;;;;;;;;;;;;;;;;;;5071291;28;20027;-81
2023/12/31 12:21:27;;;;;;;3.17;1.35;;;;;;;;;;5067407;28;19927;-81
2023/12/31 12:23:53;;;;;;;2.88;2.25;;;;;;;;;;5069282;28;20032;-81
2023/12/31 12:26:20;;;;;;;3.65;1.90;;;;;;;;;;5070735;28;20468;-82
2023/12/31 12:28:50;;;;;;;3.08;2.47;;;;;;;;;;5068706;28;20079;-81
2023/12/31 12:31:19;;;;;;;4.63;2.50;;;;;;;;;;5053693;28;20082;-81
2023/12/31 12:33:52;;;;;;;1.50;1.25;;;;;;;;;;5071685;28;20044;-81
2023/12/31 12:36:18;;;;;;;3.83;2.55;;;;;;;;;;5072535;28;20841;-82
2023/12/31 12:38:45;;;;;;;5.45;1.98;;;;;;;;;;5053116;28;20046;-82
2023/12/31 12:41:24;;;;;;;5.30;2.00;;;;;;;;;;5070459;28;20041;-81
2023/12/31 12:43:57;;;;;;;5.03;3.03;;;;;;;;;;5069398;28;20510;-80
2023/12/31 12:46:27;;;;;;;5.53;2.17;;;;;;;;;;5071174;28;20425;-82
2023/12/31 12:48:55;;;;;;;2.83;2.00;;;;;;;;;;5072375;28;20618;-80
2023/12/31 12:51:21;;;;;;;9.20;2.92;;;;;;;;;;5073311;28;20020;-82
2023/12/31 12:53:57;;;;;;;4.55;3.03;;;;;;;;;;5069534;28;20035;-83
2023/12/31 12:56:23;;;;;;;3.92;2.47;;;;;;;;;;5067697;28;20468;-81
2023/12/31 12:58:51;;;;;;;3.03;2.03;;;;;;;;;;5050223;28;20041;-81
2023/12/31 13:01:22;;;;;;;3.00;2.00;;;;;;;;;;5070734;28;20489;-81
2023/12/31 13:03:48;;;;;;;4.13;2.03;;;;;;;;;;5055121;28;20043;-82
2023/12/31 13:06:14;;;;;;;5.05;2.17;;;;;;;;;;5073393;28;20111;-81
2023/12/31 13:08:42;;;;;;;3.30;1.98;;;;;;;;;;5073979;28;20085;-81
2023/12/31 13:11:13;;;;;;;4.43;2.75;;;;;;;;;;5072783;28;20029;-81
2023/12/31 13:13:39;;;;;;;2.72;2.03;;;;;;;;;;5071275;28;20051;-80
2023/12/31 13:16:17;;;;;;;3.17;1.98;;;;;;;;;;5073256;28;20044;-82
2023/12/31 13:18:43;;;;;;;1.77;1.27;;;;;;;;;;5071582;28;20048;-79
2023/12/31 13:21:13;;;;;;;1.80;1.35;;;;;;;;;;5069121;28;20063;-82
2023/12/31 13:23:40;;;;;;;2.45;1.40;;;;;;;;;;5049812;28;20032;-81
2023/12/31 13:26:08;;;;;;;4.57;2.92;;;;;;;;;;5066817;28;20512;-83
2023/12/31 13:28:36;;;;;;;1.30;1.20;;;;;;;;;;5048798;28;20365;-81
2023/12/31 13:31:01;;;;;;;1.30;1.13;;;;;;;;;;5066680;28;20078;-82
2023/12/31 13:33:31;;;;;;;2.55;1.73;;;;;;;;;;5067309;28;20028;-82
2023/12/31 13:36:09;;;;;;;1.73;1.45;;;;;;;;;;5066358;28;20042;-81
2023/12/31 13:38:39;;;;;;;1.58;1.10;;;;;;;;;;5066808;28;20078;-82
2023/12/31 13:41:18;;;;;;;5.45;3.38;;;;;;;;;;5067497;28;20020;-81
2023/12/31 13:43:44;;;;;;;7.55;5.18;;;;;;;;;;5047115;28;20553;-82
2023/12/31 13:46:09;;;;;;;3.65;2.72;;;;;;;;;;5067872;28;20112;-81
2023/12/31 13:48:38;;;;;;;2.45;2.22;;;;;;;;;;5071021;28;20063;-82
2023/12/31 13:51:04;;;;;;;4.97;2.58;;;;;;;;;;5068850;28;20060;-82
2023/12/31 13:53:30;;;;;;;2.78;1.58;;;;;;;;;;5052579;28;20064;-81
2023/12/31 13:55:55;;;;;;;1.17;1.10;;;;;;;;;;5052914;28;20028;-81
2023/12/31 13:58:21;;;;;;;1.38;1.27;;;;;;;;;;5050722;28;20075;-81
2023/12/31 14:00:52;;;;;;;3.58;1.98;;;;;;;;;;5070215;28;20108;-82
2023/12/31 14:03:18;;;;;;;4.13;3.35;;;;;;;;;;5051921;28;20044;-82
2023/12/31 14:05:44;;;;;;;6.70;3.97;;;;;;;;;;5069663;28;20077;-82
2023/12/31 14:08:10;;;;;;;3.22;2.92;;;;;;;;;;5068729;28;20033;-82
2023/12/31 14:10:35;;;;;;;11.93;6.05;;;;;;;;;;5069390;28;20116;-79
2023/12/31 14:13:02;;;;;;;9.65;5.75;;;;;;;;;;5070019;28;20025;-80
2023/12/31 14:15:31;;;;;;;21.13;9.63;;;;;;;;;;5067488;28;20048;-81
2023/12/31 14:17:58;;;;;;;16.87;6.77;;;;;;;;;;5068095;28;20460;-80
2023/12/31 14:20:23;;;;;;;7.55;5.35;;;;;;;;;;5069353;28;20613;-82
2023/12/31 14:22:50;;;;;;;13.25;6.20;;;;;;;;;;5071715;28;20033;-81
2023/12/31 14:25:15;;;;;;;12.13;8.05;;;;;;;;;;5070599;28;20118;-80
2023/12/31 14:27:40;;;;;;;6.35;4.05;;;;;;;;;;5069202;28;20025;-79
2023/12/31 14:30:07;;;;;;;6.07;3.70;;;;;;;;;;5070382;28;20020;-80
2023/12/31 14:32:33;;;;;;;11.43;6.85;;;;;;;;;;5069413;28;20052;-81
2023/12/31 14:34:59;;;;;;;18.77;8.88;;;;;;;;;;5067117;28;20059;-79
2023/12/31 14:37:24;;;;;;;22.23;11.52;;;;;;;;;;5071135;28;20029;-80
2023/12/31 14:39:50;;;;;;;12.88;6.68;;;;;;;;;;5069893;28;20051;-80
2023/12/31 14:42:16;;;;;;;8.95;3.33;;;;;;;;;;5071209;28;20067;-80
2023/12/31 14:44:42;;;;;;;7.05;4.28;;;;;;;;;;5070576;28;20109;-82
2023/12/31 14:47:09;;;;;;;7.40;4.30;;;;;;;;;;5070485;28;20667;-82
2023/12/31 14:49:35;;;;;;;9.52;5.95;;;;;;;;;;5049922;28;20036;-80
2023/12/31 14:52:00;;;;;;;13.80;4.63;;;;;;;;;;5069332;28;20121;-80
2023/12/31 14:54:25;;;;;;;3.67;2.10;;;;;;;;;;5070038;28;20082;-82
2023/12/31 14:56:51;;;;;;;4.93;2.92;;;;;;;;;;5070401;28;20072;-81